Time;durP1;ratioP1;P1;durP2;ratioP2;P2;SDS_P1;SDS_P2;PMS_P1;PMS_P2;Temp;Humidity;BMP_temperature;BMP_pressure;BME280_temperature;BME280_humidity;BME280_pressure;Samples;Min_cycle;Max_cycle;Signal;HPM_P1;HPM_P2
2022/04/02 00:01:22;;;;;;;51.58;14.07;;;;;;;13.70;56.13;99556.38;1596448;87;21014;-66
2022/04/02 00:03:49;;;;;;;37.20;11.75;;;;;;;13.72;56.08;99546.67;1700104;84;21053;-66
2022/04/02 00:06:16;;;;;;;42.10;13.98;;;;;;;13.73;55.98;99550.96;1705170;84;21018;-67
2022/04/02 00:08:43;;;;;;;42.70;13.18;;;;;;;13.72;55.79;99551.91;1705401;84;21081;-67
2022/04/02 00:11:10;;;;;;;29.00;10.20;;;;;;;13.70;55.65;99556.38;1705433;84;21553;-67
2022/04/02 00:13:38;;;;;;;33.98;10.63;;;;;;;13.66;55.73;99562.69;1705152;84;21050;-66
2022/04/02 00:16:05;;;;;;;49.40;14.55;;;;;;;13.65;55.85;99570.13;1705220;84;21078;-67
2022/04/02 00:18:32;;;;;;;35.30;11.28;;;;;;;13.62;56.05;99582.89;1705521;84;21525;-67
2022/04/02 00:20:59;;;;;;;39.65;12.30;;;;;;;13.62;56.38;99579.46;1705163;84;21030;-67
2022/04/02 00:23:36;;;;;;;36.38;11.45;;;;;;;13.61;56.56;99573.84;1705298;84;21038;-66
2022/04/02 00:26:04;;;;;;;50.83;14.05;;;;;;;13.62;56.55;99574.23;1705149;84;21085;-67
2022/04/02 00:28:32;;;;;;;37.50;11.75;;;;;;;13.60;56.46;99578.70;1705244;84;21517;-66
2022/04/02 00:30:59;;;;;;;33.58;11.88;;;;;;;13.59;56.42;99574.37;1705124;84;21042;-67
2022/04/02 00:33:27;;;;;;;32.17;12.03;;;;;;;13.55;56.47;99585.92;1705082;84;21041;-67
2022/04/02 00:35:54;;;;;;;30.92;11.80;;;;;;;13.53;56.53;99586.01;1705511;84;21053;-66
2022/04/02 00:38:23;;;;;;;37.63;12.63;;;;;;;13.51;56.78;99583.94;1705198;84;21049;-67
2022/04/02 00:40:50;;;;;;;34.03;10.80;;;;;;;13.51;56.93;99594.39;1705396;84;21034;-66
2022/04/02 00:43:29;;;;;;;29.52;9.78;;;;;;;13.51;57.25;99589.62;1705074;84;21509;-67
2022/04/02 00:45:59;;;;;;;33.58;11.30;;;;;;;13.52;57.67;99583.45;1640659;87;21059;-67
2022/04/02 00:48:27;;;;;;;33.30;10.63;;;;;;;13.56;57.98;99587.63;1617338;89;21053;-67
2022/04/02 00:50:57;;;;;;;33.98;9.73;;;;;;;13.59;58.20;99591.37;1611367;89;21631;-68
2022/04/02 00:53:25;;;;;;;21.35;7.42;;;;;;;13.62;58.42;99584.20;1595000;90;21043;-67
2022/04/02 00:55:54;;;;;;;23.00;8.53;;;;;;;13.69;58.79;99591.27;1583995;90;21141;-67
2022/04/02 00:58:22;;;;;;;26.17;8.10;;;;;;;13.72;59.10;99585.41;1594877;90;21114;-67
2022/04/02 01:00:49;;;;;;;37.60;10.60;;;;;;;13.79;59.30;99580.70;1595016;90;21078;-66
2022/04/02 01:03:18;;;;;;;34.58;9.55;;;;;;;13.84;59.19;99585.23;1595018;90;21138;-67
2022/04/02 01:05:48;;;;;;;32.28;9.98;;;;;;;13.87;58.62;99593.75;1592856;90;21086;-67
2022/04/02 01:08:17;;;;;;;27.73;9.40;;;;;;;13.86;57.68;99589.92;1574800;90;21074;-67
2022/04/02 01:10:45;;;;;;;34.73;12.37;;;;;;;13.82;57.08;99603.63;1595047;90;21043;-67
2022/04/02 01:13:15;;;;;;;30.97;13.85;;;;;;;13.76;56.82;99605.72;1595026;90;21083;-67
2022/04/02 01:15:43;;;;;;;34.80;14.60;;;;;;;13.69;56.64;99609.56;1589442;90;21094;-67
2022/04/02 01:18:13;;;;;;;42.83;15.13;;;;;;;13.61;56.56;99606.51;1595100;90;21125;-67
2022/04/02 01:20:40;;;;;;;34.63;13.80;;;;;;;13.52;56.58;99615.66;1595195;90;21047;-67
2022/04/02 01:23:08;;;;;;;35.10;14.05;;;;;;;13.46;56.55;99612.06;1594920;90;21082;-68
2022/04/02 01:25:37;;;;;;;36.45;13.18;;;;;;;13.41;56.62;99614.54;1592343;90;21051;-67
2022/04/02 01:28:07;;;;;;;41.60;12.55;;;;;;;13.35;56.74;99609.63;1546465;93;21086;-67
2022/04/02 01:30:36;;;;;;;36.17;11.10;;;;;;;13.30;56.98;99603.78;1540408;92;21075;-67
2022/04/02 01:33:03;;;;;;;28.05;10.20;;;;;;;13.24;57.11;99605.39;1546093;91;21111;-67
2022/04/02 01:35:31;;;;;;;42.75;11.28;;;;;;;13.20;57.34;99613.86;1542654;92;21591;-67
2022/04/02 01:38:05;;;;;;;28.12;8.40;;;;;;;13.18;57.43;99616.16;1546284;93;21097;-68
2022/04/02 01:40:33;;;;;;;26.27;8.70;;;;;;;13.15;57.58;99621.55;1546122;93;21097;-67
2022/04/02 01:43:01;;;;;;;32.48;7.62;;;;;;;13.12;57.73;99625.61;1521961;93;21115;-67
2022/04/02 01:45:28;;;;;;;29.70;6.78;;;;;;;13.08;57.90;99620.52;1539144;92;21112;-67
2022/04/02 01:47:57;;;;;;;25.68;6.95;;;;;;;13.06;58.17;99624.97;1528162;94;21117;-67
2022/04/02 01:50:29;;;;;;;24.30;6.40;;;;;;;13.03;58.40;99622.50;1503326;95;21173;-67
2022/04/02 01:52:56;;;;;;;26.68;8.13;;;;;;;13.00;58.57;99617.41;1487729;95;21571;-67
2022/04/02 01:55:23;;;;;;;28.35;6.25;;;;;;;12.97;58.68;99609.75;1487756;96;21131;-67
2022/04/02 01:57:55;;;;;;;28.65;6.33;;;;;;;12.95;58.66;99612.89;1488070;96;21681;-67
2022/04/02 02:00:26;;;;;;;;;;;;;;;12.89;58.74;99609.28;1487064;96;21106;-67
2022/04/02 02:02:54;;;;;;;24.98;6.45;;;;;;;12.84;59.01;99606.04;1488021;96;20154;-67
2022/04/02 02:05:21;;;;;;;23.00;6.90;;;;;;;12.82;59.13;99605.27;1487767;96;21642;-67
2022/04/02 02:07:50;;;;;;;24.52;5.75;;;;;;;12.82;59.19;99601.80;1487611;96;21156;-67
2022/04/02 02:10:19;;;;;;;25.37;7.28;;;;;;;12.82;59.24;99602.66;1487613;96;21144;-67
2022/04/02 02:12:49;;;;;;;19.52;5.62;;;;;;;12.82;59.32;99605.27;1485114;96;21583;-66
2022/04/02 02:15:22;;;;;;;23.15;5.65;;;;;;;12.83;59.36;99610.89;1485002;96;21630;-67
2022/04/02 02:17:52;;;;;;;25.80;5.87;;;;;;;12.83;59.33;99614.80;1485349;96;21124;-66
2022/04/02 02:20:19;;;;;;;22.00;6.42;;;;;;;12.86;59.40;99614.64;1487798;96;21159;-67
2022/04/02 02:22:50;;;;;;;22.67;5.33;;;;;;;12.86;59.45;99617.25;1487762;96;21142;-67
2022/04/02 02:25:17;;;;;;;20.48;6.03;;;;;;;12.88;59.47;99623.24;1487960;96;21604;-67
2022/04/02 02:27:45;;;;;;;18.95;5.15;;;;;;;12.90;59.42;99620.58;1492771;96;21085;-67
2022/04/02 02:30:14;;;;;;;19.57;5.50;;;;;;;12.91;59.32;99624.86;1499629;91;21036;-67
2022/04/02 02:32:44;;;;;;;22.60;6.92;;;;;;;12.92;59.29;99623.96;1560970;92;21117;-68
2022/04/02 02:38:11;;;;;;;16.37;4.70;;;;;;;12.93;59.19;99604.75;1550852;92;21118;-67
2022/04/02 02:40:43;;;;;;;17.17;4.53;;;;;;;12.94;59.23;99612.49;1545001;92;21612;-67
2022/04/02 02:43:12;;;;;;;18.70;5.12;;;;;;;12.94;59.25;99615.11;1550047;92;21578;-67
2022/04/02 02:45:41;;;;;;;14.65;4.90;;;;;;;12.94;59.25;99611.67;1571033;90;21274;-67
2022/04/02 02:48:09;;;;;;;16.93;4.15;;;;;;;12.93;59.35;99610.82;1585020;90;21577;-67
2022/04/02 02:50:42;;;;;;;19.75;4.28;;;;;;;12.93;59.47;99605.60;1581971;90;21118;-67
2022/04/02 02:53:11;;;;;;;16.87;4.20;;;;;;;12.94;59.54;99596.83;1611218;89;21074;-67
2022/04/02 02:55:39;;;;;;;15.63;4.58;;;;;;;12.94;59.59;99602.53;1610297;89;21141;-67
2022/04/02 02:58:08;;;;;;;15.32;5.00;;;;;;;12.92;59.71;99585.62;1611338;89;21062;-67
2022/04/02 03:00:36;;;;;;;16.50;4.30;;;;;;;12.92;59.68;99596.06;1611384;89;21499;-67
2022/04/02 03:03:04;;;;;;;14.45;3.70;;;;;;;12.91;59.75;99597.00;1611541;89;21074;-67
2022/04/02 03:05:34;;;;;;;13.50;3.95;;;;;;;12.90;59.79;99603.13;1611485;89;21522;-67
2022/04/02 03:08:05;;;;;;;17.05;3.65;;;;;;;12.90;59.75;99600.52;1608727;89;21058;-67
2022/04/02 03:10:40;;;;;;;17.00;3.90;;;;;;;12.91;59.75;99609.20;1608443;89;21075;-67
2022/04/02 03:13:08;;;;;;;16.37;3.55;;;;;;;12.89;59.72;99610.59;1611734;89;21090;-67
2022/04/02 03:15:36;;;;;;;16.35;3.90;;;;;;;12.89;59.71;99609.28;1611661;89;21070;-67
2022/04/02 03:18:08;;;;;;;23.30;5.08;;;;;;;12.88;59.62;99611.49;1611659;89;21078;-67
2022/04/02 03:20:37;;;;;;;15.93;5.42;;;;;;;12.86;59.56;99612.03;1600971;89;21042;-67
2022/04/02 03:23:05;;;;;;;16.82;4.17;;;;;;;12.87;59.53;99612.87;1611792;89;21549;-68
2022/04/02 03:25:33;;;;;;;18.50;4.42;;;;;;;12.85;59.36;99610.35;1611807;89;21042;-67
2022/04/02 03:28:02;;;;;;;18.55;4.55;;;;;;;12.83;59.39;99613.95;1611522;89;21078;-67
2022/04/02 03:30:29;;;;;;;16.45;4.17;;;;;;;12.81;59.37;99619.26;1611545;89;21070;-68
2022/04/02 03:32:57;;;;;;;15.60;4.05;;;;;;;12.80;59.47;99617.55;1600848;89;21074;-67
2022/04/02 03:35:25;;;;;;;13.65;4.60;;;;;;;12.78;59.48;99616.78;1680599;84;21069;-68
2022/04/02 03:37:53;;;;;;;18.20;4.47;;;;;;;12.76;59.55;99602.96;1702355;84;21057;-68
2022/04/02 03:40:23;;;;;;;19.45;4.62;;;;;;;12.75;59.56;99607.81;1693513;84;21057;-67
2022/04/02 03:42:50;;;;;;;11.97;3.62;;;;;;;12.73;59.65;99601.82;1702559;84;21482;-67
2022/04/02 03:45:21;;;;;;;13.08;3.35;;;;;;;12.73;59.74;99621.39;1697675;84;21058;-67
2022/04/02 03:47:52;;;;;;;16.27;4.62;;;;;;;12.71;59.92;99619.77;1702307;84;21030;-67
2022/04/02 03:50:20;;;;;;;15.53;4.28;;;;;;;12.72;60.05;99624.91;1699773;84;21046;-67
2022/04/02 03:52:53;;;;;;;18.57;4.50;;;;;;;12.72;60.17;99613.16;1659780;86;21090;-67
2022/04/02 03:55:22;;;;;;;21.52;6.33;;;;;;;12.73;60.24;99615.33;1647926;86;21062;-67
2022/04/02 03:57:52;;;;;;;17.98;4.12;;;;;;;12.73;60.28;99608.34;1652265;86;21078;-67
2022/04/02 04:00:20;;;;;;;14.47;4.08;;;;;;;12.74;60.37;99617.85;1652556;86;21535;-67
2022/04/02 04:02:53;;;;;;;11.73;4.12;;;;;;;12.74;60.51;99611.33;1648570;86;21031;-67
2022/04/02 04:05:23;;;;;;;16.10;4.33;;;;;;;12.76;60.68;99619.92;1680616;85;21050;-67
2022/04/02 04:07:51;;;;;;;25.08;4.72;;;;;;;12.76;60.77;99629.06;1682157;85;21022;-67
2022/04/02 04:10:20;;;;;;;16.85;4.87;;;;;;;12.80;60.88;99630.60;1682825;84;21065;-67
2022/04/02 04:12:50;;;;;;;16.05;4.97;;;;;;;12.84;60.88;99629.53;1670072;86;21070;-67
2022/04/02 04:15:18;;;;;;;18.55;4.50;;;;;;;12.87;60.75;99634.63;1654063;85;20978;-67
2022/04/02 04:17:46;;;;;;;13.60;4.47;;;;;;;12.89;60.74;99632.78;1682270;85;21079;-67
2022/04/02 04:20:14;;;;;;;17.95;5.70;;;;;;;12.93;60.80;99633.02;1682929;85;21565;-67
2022/04/02 04:22:40;;;;;;;17.12;5.15;;;;;;;12.98;60.73;99624.48;1683303;85;21522;-66
2022/04/02 04:25:10;;;;;;;18.20;4.62;;;;;;;13.03;60.77;99625.11;1666407;86;21093;-67
2022/04/02 04:27:38;;;;;;;13.80;3.62;;;;;;;13.08;60.70;99628.84;1675477;85;21034;-67
2022/04/02 04:30:09;;;;;;;10.50;3.83;;;;;;;13.11;60.65;99631.77;1670191;86;21117;-67
2022/04/02 04:32:39;;;;;;;20.20;4.53;;;;;;;13.13;60.48;99630.75;1670211;86;21549;-66
2022/04/02 04:35:07;;;;;;;13.45;4.28;;;;;;;13.15;60.48;99634.13;1667596;85;21058;-67
2022/04/02 04:37:37;;;;;;;11.90;3.92;;;;;;;13.19;60.43;99638.27;1670028;86;21074;-67
2022/04/02 04:40:08;;;;;;;13.43;4.17;;;;;;;13.22;60.30;99639.44;1629940;87;21045;-67
2022/04/02 04:42:38;;;;;;;13.45;3.87;;;;;;;13.24;60.22;99633.67;1623896;87;21080;-67
2022/04/02 04:45:08;;;;;;;19.15;6.10;;;;;;;13.27;60.00;99639.22;1624162;87;21039;-67
2022/04/02 04:47:36;;;;;;;18.48;4.00;;;;;;;13.29;59.87;99645.21;1624217;87;21050;-67
2022/04/02 04:50:06;;;;;;;15.05;4.47;;;;;;;13.33;59.66;99654.58;1622054;87;21094;-66
2022/04/02 04:52:36;;;;;;;17.27;4.55;;;;;;;13.34;59.45;99653.64;1626375;87;21130;-66
2022/04/02 04:55:05;;;;;;;20.80;4.97;;;;;;;13.35;59.43;99656.66;1634999;87;21019;-66
2022/04/02 04:57:34;;;;;;;23.07;5.10;;;;;;;13.36;59.43;99658.33;1624494;87;21519;-66
2022/04/02 05:00:05;;;;;;;24.25;5.80;;;;;;;13.38;59.38;99666.94;1601649;88;21593;-66
2022/04/02 05:02:33;;;;;;;18.50;4.58;;;;;;;13.43;59.36;99674.09;1586755;90;21066;-66
2022/04/02 05:05:01;;;;;;;16.30;3.75;;;;;;;13.46;59.28;99667.39;1586738;90;21081;-66
2022/04/02 05:07:29;;;;;;;23.00;4.90;;;;;;;13.48;59.21;99666.85;1610785;88;21045;-66
2022/04/02 05:10:00;;;;;;;13.28;4.40;;;;;;;13.52;59.19;99678.84;1617452;87;21118;-66
2022/04/02 05:12:29;;;;;;;12.93;4.37;;;;;;;13.57;59.00;99686.00;1596887;87;21085;-66
2022/04/02 05:14:58;;;;;;;21.60;4.55;;;;;;;13.61;58.75;99678.39;1617434;87;21122;-66
2022/04/02 05:17:25;;;;;;;16.45;5.05;;;;;;;13.67;58.54;99680.69;1617278;87;21529;-67
2022/04/02 05:19:54;;;;;;;13.50;4.33;;;;;;;13.72;58.39;99676.91;1617041;89;21025;-66
2022/04/02 05:22:22;;;;;;;18.32;4.40;;;;;;;13.78;58.15;99675.77;1617343;87;21053;-66
2022/04/02 05:24:51;;;;;;;16.70;4.28;;;;;;;13.82;57.92;99683.83;1617326;87;21600;-66
2022/04/02 05:27:19;;;;;;;15.10;3.80;;;;;;;13.86;57.86;99678.83;1612188;87;21057;-66
2022/04/02 05:29:46;;;;;;;16.30;4.65;;;;;;;13.92;57.60;99669.35;1617314;87;21581;-66
2022/04/02 05:32:14;;;;;;;16.50;4.87;;;;;;;13.94;57.45;99664.88;1617447;87;21056;-66
2022/04/02 05:34:41;;;;;;;18.62;5.87;;;;;;;13.98;57.51;99668.17;1617246;87;21117;-66
2022/04/02 05:37:09;;;;;;;14.18;4.40;;;;;;;14.01;57.38;99668.03;1611851;87;21130;-66
2022/04/02 05:39:37;;;;;;;12.40;4.22;;;;;;;14.03;57.23;99664.41;1600043;87;21058;-66
2022/04/02 05:42:06;;;;;;;17.25;5.40;;;;;;;14.06;57.15;99671.23;1599383;87;21115;-67
2022/04/02 05:44:33;;;;;;;17.82;4.70;;;;;;;14.08;57.12;99662.38;1599858;87;21101;-66
2022/04/02 05:47:01;;;;;;;13.90;4.15;;;;;;;14.12;57.11;99666.52;1601575;87;21561;-66
2022/04/02 05:49:28;;;;;;;17.27;4.30;;;;;;;14.15;57.03;99657.67;1600696;87;21537;-67
2022/04/02 05:51:56;;;;;;;17.40;5.15;;;;;;;14.19;56.85;99663.12;1599052;89;21161;-66
2022/04/02 05:54:23;;;;;;;18.25;4.45;;;;;;;14.24;56.79;99665.05;1605817;87;21005;-66
2022/04/02 05:56:52;;;;;;;16.02;4.87;;;;;;;14.29;56.76;99657.34;1629661;86;21026;-66
2022/04/02 05:59:19;;;;;;;14.00;3.77;;;;;;;14.36;56.63;99663.92;1667450;86;21100;-66
2022/04/02 06:01:48;;;;;;;13.68;3.75;;;;;;;14.46;56.62;99662.52;1673285;86;21505;-65
2022/04/02 06:04:15;;;;;;;17.52;5.25;;;;;;;14.65;56.43;99663.17;1673186;86;21030;-66
2022/04/02 06:06:45;;;;;;;19.80;4.72;;;;;;;14.96;55.93;99654.92;1673228;86;21062;-65
2022/04/02 06:09:13;;;;;;;15.72;4.30;;;;;;;15.35;55.17;99652.63;1672839;86;21027;-66
2022/04/02 06:11:40;;;;;;;15.55;4.15;;;;;;;15.72;54.26;99656.11;1673127;86;21007;-65
2022/04/02 06:14:07;;;;;;;17.70;6.03;;;;;;;16.07;53.24;99657.41;1673026;86;21019;-65
2022/04/02 06:16:34;;;;;;;22.58;4.65;;;;;;;16.44;52.30;99660.41;1673023;86;21531;-65
2022/04/02 06:19:02;;;;;;;18.50;4.55;;;;;;;16.83;51.46;99648.70;1672913;86;21105;-65
2022/04/02 06:21:30;;;;;;;21.33;5.65;;;;;;;17.24;50.25;99644.67;1673113;86;21046;-65
2022/04/02 06:23:58;;;;;;;20.15;4.40;;;;;;;17.55;49.13;99644.34;1642822;86;21014;-65
2022/04/02 06:26:25;;;;;;;17.23;4.87;;;;;;;17.76;48.34;99645.03;1672877;86;21058;-66
2022/04/02 06:28:52;;;;;;;18.35;4.65;;;;;;;17.91;47.78;99645.77;1673199;86;21097;-65
2022/04/02 06:31:19;;;;;;;18.35;4.22;;;;;;;18.03;46.99;99644.95;1672849;86;21747;-65
2022/04/02 06:33:46;;;;;;;15.85;4.60;;;;;;;18.08;46.91;99643.28;1673216;86;21095;-65
2022/04/02 06:36:16;;;;;;;17.30;4.95;;;;;;;18.12;46.48;99642.11;1672978;86;21034;-67
2022/04/02 06:38:42;;;;;;;19.55;4.90;;;;;;;18.09;46.45;99641.88;1668137;86;21046;-65
2022/04/02 06:41:09;;;;;;;17.17;4.90;;;;;;;18.06;46.51;99638.13;1668538;86;21499;-65
2022/04/02 06:43:36;;;;;;;19.15;4.47;;;;;;;18.12;46.50;99639.48;1668525;86;21544;-65
2022/04/02 06:46:05;;;;;;;21.82;4.97;;;;;;;18.28;45.98;99649.33;1668375;86;21000;-66
2022/04/02 06:48:33;;;;;;;15.78;4.50;;;;;;;18.38;45.61;99637.19;1668539;86;21025;-65
2022/04/02 06:51:02;;;;;;;14.60;4.97;;;;;;;18.37;45.41;99644.71;1668540;86;21050;-65
2022/04/02 06:53:30;;;;;;;18.32;4.90;;;;;;;18.24;45.31;99647.83;1683941;84;21079;-65
2022/04/02 06:55:57;;;;;;;24.37;5.67;;;;;;;18.14;45.54;99646.33;1690752;85;21066;-65
2022/04/02 06:58:34;;;;;;;20.25;5.08;;;;;;;18.08;45.80;99647.23;1690863;85;21018;-66
2022/04/02 07:01:01;;;;;;;16.87;5.17;;;;;;;18.09;45.86;99660.31;1690799;85;21054;-65
2022/04/02 07:03:28;;;;;;;19.32;4.80;;;;;;;18.07;45.55;99654.78;1702969;84;21038;-66
2022/04/02 07:05:57;;;;;;;19.12;5.87;;;;;;;18.00;45.58;99644.29;1702929;84;21097;-66
2022/04/02 07:08:25;;;;;;;17.95;5.05;;;;;;;17.91;45.74;99644.45;1703215;84;21035;-65
2022/04/02 07:10:53;;;;;;;16.37;4.12;;;;;;;17.73;45.79;99650.52;1702951;84;21037;-65
2022/04/02 07:13:19;;;;;;;17.77;4.85;;;;;;;17.52;46.27;99652.42;1702951;84;21518;-66
2022/04/02 07:15:48;;;;;;;11.48;4.20;;;;;;;17.37;46.60;99647.69;1696501;84;21073;-65
2022/04/02 07:18:15;;;;;;;21.35;5.08;;;;;;;17.25;47.08;99648.51;1703114;84;21462;-65
2022/04/02 07:20:44;;;;;;;17.35;4.72;;;;;;;17.24;47.31;99657.36;1702942;84;22002;-64
2022/04/02 07:23:12;;;;;;;18.05;5.50;;;;;;;17.34;47.13;99653.17;1703576;84;21093;-65
2022/04/02 07:25:41;;;;;;;21.80;6.00;;;;;;;17.46;47.20;99654.97;1696764;84;21610;-65
2022/04/02 07:28:09;;;;;;;17.20;5.60;;;;;;;17.63;46.78;99648.61;1703024;84;21040;-65
2022/04/02 07:30:38;;;;;;;18.10;5.33;;;;;;;17.79;46.60;99652.73;1703338;84;21039;-65
2022/04/02 07:33:06;;;;;;;22.75;5.67;;;;;;;17.95;46.31;99654.31;1703159;84;21029;-65
2022/04/02 07:35:55;;;;;;;19.00;4.70;;;;;;;18.02;46.12;99652.92;1703123;84;21537;-66
2022/04/02 07:38:32;;;;;;;16.42;4.83;;;;;;;17.99;46.06;99658.42;1701076;84;21043;-65
2022/04/02 07:41:21;;;;;;;19.00;5.22;;;;;;;17.86;46.17;99651.37;1567606;91;21523;-65
2022/04/02 07:44:05;;;;;;;17.85;5.28;;;;;;;17.71;46.35;99660.30;1567741;91;21055;-65
2022/04/02 07:46:34;;;;;;;16.40;4.75;;;;;;;17.54;46.64;99657.96;1567891;91;21035;-65
2022/04/02 07:49:03;;;;;;;18.48;6.05;;;;;;;17.37;46.88;99662.16;1548021;91;21067;-65
2022/04/02 07:51:33;;;;;;;18.62;5.87;;;;;;;17.23;47.20;99665.35;1567697;91;21000;-65
2022/04/02 07:54:02;;;;;;;22.60;5.92;;;;;;;17.08;47.47;99667.20;1559842;91;21598;-65
2022/04/02 07:56:32;;;;;;;15.45;5.30;;;;;;;16.97;47.85;99672.30;1558186;92;21084;-66
2022/04/02 07:59:01;;;;;;;16.23;5.33;;;;;;;16.88;48.17;99668.48;1558013;92;21052;-65
2022/04/02 08:01:28;;;;;;;21.65;5.75;;;;;;;16.80;48.35;99670.75;1558285;92;21044;-65
2022/04/02 08:03:58;;;;;;;21.23;5.30;;;;;;;16.76;48.41;99671.89;1558325;91;21124;-65
2022/04/02 08:06:25;;;;;;;22.82;5.25;;;;;;;16.70;48.58;99671.44;1538679;92;21119;-65
2022/04/02 08:08:54;;;;;;;13.72;4.90;;;;;;;16.64;48.79;99665.27;1558246;91;21045;-65
2022/04/02 08:11:21;;;;;;;21.35;6.17;;;;;;;16.62;49.01;99669.77;1558330;92;21121;-65
2022/04/02 08:13:51;;;;;;;16.12;5.53;;;;;;;16.63;49.00;99664.91;1558134;92;21025;-65
2022/04/02 08:16:17;;;;;;;19.48;5.72;;;;;;;16.62;48.88;99664.52;1558459;92;21524;-65
2022/04/02 08:18:47;;;;;;;22.62;5.62;;;;;;;16.61;48.88;99665.47;1558003;92;21701;-65
2022/04/02 08:21:16;;;;;;;20.10;5.50;;;;;;;16.57;48.94;99673.17;1558266;92;21389;-65
2022/04/02 08:23:43;;;;;;;21.75;6.17;;;;;;;16.53;48.89;99666.40;1558131;92;21093;-65
2022/04/02 08:26:50;;;;;;;19.42;4.95;;;;;;;16.50;49.09;99666.61;1557370;92;21126;-65
2022/04/02 08:29:32;;;;;;;16.87;5.92;;;;;;;16.45;49.18;99665.55;1538440;93;21106;-65
2022/04/02 08:32:13;;;;;;;24.72;6.42;;;;;;;16.45;49.35;99666.86;1492433;95;21108;-65
2022/04/02 08:35:06;;;;;;;21.97;5.95;;;;;;;16.47;49.36;99671.55;1489924;96;21101;-65
2022/04/02 08:37:52;;;;;;;19.45;5.72;;;;;;;16.48;49.23;99671.08;1521489;91;21550;-65
2022/04/02 08:40:50;;;;;;;20.27;6.70;;;;;;;16.47;49.24;99668.06;1515721;93;21548;-66
2022/04/02 08:43:56;;;;;;;22.13;6.05;;;;;;;16.45;49.21;99670.80;1503192;93;21085;-65
2022/04/02 08:46:35;;;;;;;23.05;7.12;;;;;;;16.47;49.24;99668.92;1509207;94;21117;-65
2022/04/02 08:49:28;;;;;;;23.00;7.53;;;;;;;16.51;49.03;99668.28;1511912;94;21058;-65
2022/04/02 08:52:13;;;;;;;18.07;6.00;;;;;;;16.46;48.73;99665.94;1506453;94;21129;-65
2022/04/02 08:55:07;;;;;;;28.90;7.70;;;;;;;16.33;48.80;99658.91;1531663;93;21082;-65
2022/04/02 08:57:57;;;;;;;17.73;6.35;;;;;;;16.20;49.83;99655.73;1529546;93;21602;-65
2022/04/02 09:00:27;;;;;;;20.37;6.15;;;;;;;16.11;51.00;99653.69;1531757;92;21130;-66
2022/04/02 09:03:18;;;;;;;22.05;5.65;;;;;;;16.06;51.39;99643.94;1523386;93;21113;-65
2022/04/02 09:06:03;;;;;;;17.85;5.22;;;;;;;16.03;51.03;99636.23;1525377;93;21089;-65
2022/04/02 09:09:31;;;;;;;13.03;5.62;;;;;;;15.99;50.87;99636.05;1456264;96;21149;-66
2022/04/02 09:12:18;;;;;;;13.93;4.40;;;;;;;15.99;50.78;99639.98;1451483;96;21652;-65
2022/04/02 09:15:10;;;;;;;15.45;4.12;;;;;;;15.97;50.67;99628.74;1448811;96;21108;-65
2022/04/02 09:18:15;;;;;;;17.07;5.28;;;;;;;15.98;50.53;99631.76;1463368;96;21577;-65
2022/04/02 09:20:57;;;;;;;14.78;4.15;;;;;;;16.02;50.50;99629.31;1456103;97;21571;-65
2022/04/02 09:23:57;;;;;;;11.78;4.40;;;;;;;16.08;50.37;99626.31;1499167;92;21074;-65
2022/04/02 09:27:03;;;;;;;12.50;4.42;;;;;;;16.11;50.22;99639.26;1460450;96;21123;-65
2022/04/02 09:29:48;;;;;;;14.43;4.10;;;;;;;16.15;50.04;99630.26;1460665;96;21158;-65
2022/04/02 09:32:50;;;;;;;9.45;4.15;;;;;;;16.13;50.20;99636.07;1464705;96;21121;-65
2022/04/02 09:35:48;;;;;;;12.10;4.10;;;;;;;16.12;50.49;99627.81;1446555;97;21166;-65
2022/04/02 09:38:42;;;;;;;11.22;4.05;;;;;;;16.08;50.94;99643.37;1424771;100;21665;-65
2022/04/02 09:41:30;;;;;;;9.75;2.85;;;;;;;16.07;51.06;99649.54;1412482;99;21216;-66
2022/04/02 09:44:08;;;;;;;2.70;1.98;;;;;;;16.06;51.72;99643.94;1403739;102;21775;-65
2022/04/02 09:47:02;;;;;;;4.60;1.00;;;;;;;16.12;52.61;99643.55;1425572;100;21128;-65
2022/04/02 09:50:10;;;;;;;1.30;1.00;;;;;;;16.28;52.60;99639.03;1436797;98;21127;-66
2022/04/02 09:52:45;;;;;;;1.02;0.45;;;;;;;16.54;52.30;99639.22;1436645;98;21800;-65
2022/04/02 09:55:14;;;;;;;5.45;2.60;;;;;;;16.90;51.82;99636.84;1425975;99;21167;-65
2022/04/02 09:58:23;;;;;;;9.85;2.80;;;;;;;17.17;50.36;99642.07;1471944;94;21094;-66
2022/04/02 10:01:11;;;;;;;11.05;2.58;;;;;;;17.33;49.47;99637.00;1509129;95;21592;-66
2022/04/02 10:04:01;;;;;;;7.85;2.77;;;;;;;17.44;48.72;99634.98;1497276;93;21019;-65
2022/04/02 10:06:40;;;;;;;11.78;3.37;;;;;;;17.46;48.21;99633.94;1493336;95;21152;-66
2022/04/02 10:09:09;;;;;;;8.98;2.98;;;;;;;17.43;48.09;99647.30;1502548;95;21130;-65
2022/04/02 10:11:58;;;;;;;13.68;3.55;;;;;;;17.37;48.00;99656.08;1505264;95;21131;-65
2022/04/02 10:14:28;;;;;;;10.18;4.03;;;;;;;17.27;48.15;99646.62;1509076;89;21157;-65
2022/04/02 10:16:57;;;;;;;7.53;3.60;;;;;;;17.14;48.40;99645.77;1602695;89;21061;-65
2022/04/02 10:19:30;;;;;;;10.95;4.12;;;;;;;17.06;48.94;99646.75;1601658;89;21111;-66
2022/04/02 10:22:06;;;;;;;10.70;4.58;;;;;;;17.02;49.23;99646.58;1599379;88;21065;-65
2022/04/02 10:24:47;;;;;;;8.05;2.90;;;;;;;16.98;49.51;99658.23;1557011;91;21110;-65
2022/04/02 10:27:31;;;;;;;8.23;3.90;;;;;;;16.98;50.03;99650.34;1551075;92;21163;-65
2022/04/02 10:30:06;;;;;;;6.17;3.60;;;;;;;16.99;49.76;99662.53;1550699;92;21145;-65
2022/04/02 10:33:26;;;;;;;7.83;3.22;;;;;;;16.99;49.46;99662.53;1548665;92;21605;-66
2022/04/02 10:35:27;;;;;;;9.23;3.40;;;;;;;16.97;49.52;99663.10;1550987;92;21561;-64
2022/04/02 10:38:12;;;;;;;7.12;3.90;;;;;;;16.97;49.50;99664.41;1548566;92;21101;-66
2022/04/02 10:40:47;;;;;;;8.38;4.08;;;;;;;16.94;49.63;99662.82;1556761;92;21117;-65
2022/04/02 10:43:25;;;;;;;9.78;4.20;;;;;;;16.91;49.78;99668.29;1550038;92;21503;-66
2022/04/02 10:45:53;;;;;;;11.63;5.65;;;;;;;16.90;49.71;99671.00;1546880;92;21082;-65
2022/04/02 10:48:37;;;;;;;11.60;5.12;;;;;;;16.91;49.57;99674.86;1523790;93;21061;-65
2022/04/02 10:51:04;;;;;;;11.65;5.15;;;;;;;16.91;49.28;99677.95;1501102;94;21118;-65
2022/04/02 10:53:32;;;;;;;9.93;4.53;;;;;;;16.82;49.19;99668.02;1507491;94;21179;-65
2022/04/02 10:56:02;;;;;;;15.18;4.87;;;;;;;16.69;49.30;99665.83;1524768;93;21115;-65
2022/04/02 10:58:34;;;;;;;8.30;3.80;;;;;;;16.52;49.61;99674.77;1516536;92;21093;-65
2022/04/02 11:01:00;;;;;;;10.25;3.83;;;;;;;16.40;49.83;99678.59;1554827;92;21141;-65
2022/04/02 11:03:40;;;;;;;8.90;3.33;;;;;;;16.27;50.09;99681.14;1516589;93;21259;-65
2022/04/02 11:06:08;;;;;;;7.28;3.50;;;;;;;16.16;50.41;99679.17;1560712;91;22303;-65
2022/04/02 11:08:35;;;;;;;7.15;4.33;;;;;;;16.10;50.61;99672.13;1561048;91;21132;-65
2022/04/02 11:11:21;;;;;;;11.33;5.10;;;;;;;16.04;50.69;99673.36;1562011;91;21579;-65
2022/04/02 11:14:02;;;;;;;10.90;4.22;;;;;;;16.01;50.84;99670.09;1583247;90;21583;-65
2022/04/02 11:16:39;;;;;;;10.85;3.50;;;;;;;15.99;50.92;99664.09;1582017;90;21625;-64
2022/04/02 11:22:07;;;;;;;9.13;3.55;;;;;;;15.95;51.38;99672.59;1589941;90;21085;-64
2022/04/02 11:25:03;;;;;;;12.70;4.62;;;;;;;15.95;51.42;99669.97;1591416;90;21565;-65
2022/04/02 11:27:35;;;;;;;10.65;4.92;;;;;;;16.00;51.69;99667.92;1622163;85;21096;-64
2022/04/02 11:30:09;;;;;;;8.33;3.65;;;;;;;16.13;51.53;99672.81;1549608;91;21628;-64
2022/04/02 11:32:43;;;;;;;6.22;3.20;;;;;;;16.25;51.39;99664.64;1565466;91;21077;-64
2022/04/02 11:35:23;;;;;;;7.40;3.58;;;;;;;16.38;51.14;99652.91;1508512;95;21578;-66
2022/04/02 11:38:23;;;;;;;9.85;3.30;;;;;;;16.50;50.83;99661.36;1497581;95;21094;-65
2022/04/02 11:41:22;;;;;;;7.12;2.72;;;;;;;16.61;50.54;99649.22;1497627;95;21560;-65
2022/04/02 11:43:52;;;;;;;11.25;3.47;;;;;;;16.75;49.87;99661.49;1498660;95;21534;-67
2022/04/02 11:46:21;;;;;;;10.38;3.12;;;;;;;16.84;49.67;99661.73;1500081;95;21136;-66
2022/04/02 11:49:00;;;;;;;8.28;2.77;;;;;;;16.91;49.32;99660.41;1497178;95;21109;-64
2022/04/02 11:51:31;;;;;;;9.83;2.62;;;;;;;16.94;49.19;99661.97;1497956;95;21683;-64
2022/04/02 11:54:03;;;;;;;7.72;3.20;;;;;;;16.92;49.09;99654.66;1496067;95;21171;-64
2022/04/02 11:56:34;;;;;;;7.47;3.08;;;;;;;16.87;49.03;99657.61;1488517;96;21096;-64
2022/04/02 11:59:08;;;;;;;5.70;2.98;;;;;;;16.82;48.96;99665.39;1488570;96;21072;-64